Meadows, New Hampshire
Current Conditions -  °F | °C
As of 1:59 PM on Tuesday 27 Jan 2015 (Local Time) from KHIE Reporting Station
Light Snow Light Snow  
Wind Chill: -6°   Ceiling: 1900
Heat Index:   Visibility: 1.2mi
Dew Point:   Wind: 12mph
Humidity: 77%   Direction: 340°NNW
Pressure: 29.67"   Gusts: 22mph
Location:  44.36°N, 71.46°W
Report Text: KHIE 271859Z AUTO 34010G19KT 1 1/4SM -SN OVC019 M13/M16 A2967 RMK AO2 P0000 T11281161
Loading
Personal Weather Stations






























Interactive Weather Map New forecast layout! Learn more

10-Day Weather Forecast

Advertisements
Track Severe Weather on mobile